Time;durP1;ratioP1;P1;durP2;ratioP2;P2;SDS_P1;SDS_P2;PMS_P1;PMS_P2;Temp;Humidity;BMP_temperature;BMP_pressure;BME280_temperature;BME280_humidity;BME280_pressure;Samples;Min_cycle;Max_cycle;Signal;HPM_P1;HPM_P2
2021/04/18 00:01:32;;;;;;;8.55;3.67;;;6.00;99.90;;;;;;5155059;27;20050;-53
2021/04/18 00:03:57;;;;;;;10.98;5.13;;;6.00;99.90;;;;;;5157691;27;20046;-53
2021/04/18 00:06:24;;;;;;;21.58;6.93;;;6.00;99.90;;;;;;5157776;27;20039;-54
2021/04/18 00:08:50;;;;;;;21.77;6.68;;;6.10;99.90;;;;;;5157654;27;20034;-54
2021/04/18 00:11:17;;;;;;;17.92;6.40;;;6.10;99.90;;;;;;5157941;27;20043;-54
2021/04/18 00:13:43;;;;;;;21.55;7.93;;;6.00;99.90;;;;;;5157526;27;20419;-53
2021/04/18 00:16:09;;;;;;;17.35;6.05;;;6.00;99.90;;;;;;5138652;27;20053;-54
2021/04/18 00:18:35;;;;;;;17.80;5.88;;;5.90;99.90;;;;;;5157492;27;20050;-53
2021/04/18 00:21:01;;;;;;;31.88;6.93;;;5.80;99.90;;;;;;5157171;27;20042;-54
2021/04/18 00:23:26;;;;;;;16.95;6.20;;;5.80;99.90;;;;;;5157388;27;20038;-52
2021/04/18 00:25:52;;;;;;;8.65;5.30;;;5.90;99.90;;;;;;5157558;27;20083;-54
2021/04/18 00:28:18;;;;;;;12.02;5.10;;;5.80;99.90;;;;;;5157525;27;20054;-54
2021/04/18 00:30:44;;;;;;;8.45;4.72;;;5.70;99.90;;;;;;5157213;27;20039;-53
2021/04/18 00:33:10;;;;;;;34.55;5.28;;;5.90;99.90;;;;;;5157200;27;20035;-53
2021/04/18 00:35:36;;;;;;;7.55;4.13;;;5.80;99.90;;;;;;5157125;27;20038;-53
2021/04/18 00:38:03;;;;;;;5.13;3.78;;;5.80;99.90;;;;;;5157133;27;20480;-53
2021/04/18 00:40:30;;;;;;;8.15;4.50;;;5.70;99.90;;;;;;5157221;27;20125;-54
2021/04/18 00:42:55;;;;;;;14.77;4.63;;;5.70;99.90;;;;;;5156884;27;20034;-54
2021/04/18 00:45:22;;;;;;;7.75;4.63;;;5.70;99.90;;;;;;5156836;27;20083;-53
2021/04/18 00:47:52;;;;;;;7.75;4.25;;;5.70;99.90;;;;;;5156861;27;20472;-54
2021/04/18 00:50:28;;;;;;;10.45;4.63;;;5.60;99.90;;;;;;5157025;27;20039;-53
2021/04/18 00:52:54;;;;;;;13.77;5.40;;;5.60;99.90;;;;;;5157131;27;20053;-53
2021/04/18 00:55:24;;;;;;;16.67;6.78;;;5.50;99.90;;;;;;5156663;27;20078;-53
2021/04/18 00:57:52;;;;;;;53.40;8.40;;;5.40;99.90;;;;;;5158663;27;20046;-54
2021/04/18 01:00:18;;;;;;;17.77;6.55;;;5.30;99.90;;;;;;5156678;27;20067;-53
2021/04/18 01:02:44;;;;;;;10.15;6.10;;;5.40;99.90;;;;;;5156254;27;20042;-54
2021/04/18 01:05:11;;;;;;;10.77;6.55;;;5.40;99.90;;;;;;5156434;27;20556;-53
2021/04/18 01:07:37;;;;;;;10.23;6.07;;;5.30;99.90;;;;;;5138164;27;20042;-54
2021/04/18 01:10:06;;;;;;;14.63;6.57;;;5.40;99.90;;;;;;5156497;27;20113;-53
2021/04/18 01:12:32;;;;;;;;;;;5.30;99.90;;;;;;5156687;27;20472;-54
2021/04/18 01:14:57;;;;;;;9.85;5.50;;;5.30;99.90;;;;;;5156241;27;19915;-53
2021/04/18 01:17:25;;;;;;;10.80;5.97;;;5.30;99.90;;;;;;5156185;27;20054;-54
2021/04/18 01:19:50;;;;;;;15.63;6.93;;;5.30;99.90;;;;;;5156265;27;20447;-53
2021/04/18 01:22:16;;;;;;;15.63;6.80;;;5.30;99.90;;;;;;5156106;27;20039;-54
2021/04/18 01:24:42;;;;;;;9.98;5.63;;;5.30;99.90;;;;;;5156225;27;20050;-54
2021/04/18 01:27:10;;;;;;;11.35;6.35;;;5.30;99.90;;;;;;5156138;27;20043;-52
2021/04/18 01:29:36;;;;;;;12.52;5.97;;;5.30;99.90;;;;;;5156102;27;20175;-54
2021/04/18 01:32:03;;;;;;;8.00;5.65;;;5.30;99.90;;;;;;5155843;27;20049;-53
2021/04/18 01:34:30;;;;;;;8.73;5.10;;;5.40;99.90;;;;;;5155812;27;20039;-54
2021/04/18 01:36:56;;;;;;;13.98;6.07;;;5.50;99.90;;;;;;5155885;27;20136;-54
2021/04/18 01:39:22;;;;;;;12.45;6.03;;;5.30;99.90;;;;;;5155947;27;20445;-54
2021/04/18 01:41:48;;;;;;;9.07;5.70;;;5.30;99.90;;;;;;5155863;27;20252;-53
2021/04/18 01:44:15;;;;;;;11.43;5.60;;;5.30;99.90;;;;;;5156148;27;20134;-52
2021/04/18 01:46:43;;;;;;;15.82;6.25;;;5.40;99.90;;;;;;5156183;27;20039;-54
2021/04/18 01:49:09;;;;;;;10.60;5.53;;;5.50;99.90;;;;;;5156125;27;20571;-54
2021/04/18 01:51:35;;;;;;;8.98;5.45;;;5.40;99.90;;;;;;5155767;27;20322;-54
2021/04/18 01:54:01;;;;;;;8.82;5.40;;;5.40;99.90;;;;;;5155608;27;20043;-53
2021/04/18 01:56:27;;;;;;;8.35;5.22;;;5.50;99.90;;;;;;5155563;27;20074;-54
2021/04/18 01:58:53;;;;;;;13.50;5.65;;;5.50;99.90;;;;;;5155440;27;20054;-54
2021/04/18 02:01:19;;;;;;;13.85;5.47;;;5.40;99.90;;;;;;5155520;27;20047;-54
2021/04/18 02:03:45;;;;;;;9.68;6.10;;;5.30;99.90;;;;;;5155405;27;20046;-54
2021/04/18 02:06:11;;;;;;;16.77;4.90;;;5.30;99.90;;;;;;5155368;27;20042;-54
2021/04/18 02:08:37;;;;;;;7.00;4.88;;;5.30;99.90;;;;;;5155521;27;20042;-53
2021/04/18 02:11:03;;;;;;;7.50;5.05;;;5.20;99.90;;;;;;5155298;27;20047;-54
2021/04/18 02:13:31;;;;;;;6.47;4.80;;;5.20;99.90;;;;;;5155287;27;20064;-52
2021/04/18 02:15:57;;;;;;;10.48;4.45;;;5.30;99.90;;;;;;5155435;27;20046;-53
2021/04/18 02:18:22;;;;;;;8.52;4.25;;;5.20;99.90;;;;;;5155309;27;20056;-52
2021/04/18 02:20:48;;;;;;;10.77;4.35;;;5.10;99.90;;;;;;5155068;27;20453;-54
2021/04/18 02:23:14;;;;;;;8.88;4.68;;;5.10;99.90;;;;;;5154723;27;20399;-52
2021/04/18 02:25:40;;;;;;;9.25;4.60;;;5.10;99.90;;;;;;5154815;27;20042;-54
2021/04/18 02:28:06;;;;;;;8.70;4.65;;;5.00;99.90;;;;;;5154778;27;20099;-53
2021/04/18 02:30:32;;;;;;;11.60;4.93;;;5.00;99.90;;;;;;5155011;27;20073;-53
2021/04/18 02:32:58;;;;;;;14.90;5.63;;;5.00;99.90;;;;;;5154895;27;20078;-54
2021/04/18 02:35:23;;;;;;;13.85;5.30;;;4.90;99.90;;;;;;5154796;27;20079;-54
2021/04/18 02:37:49;;;;;;;8.77;5.05;;;5.00;99.90;;;;;;5154819;27;20373;-53
2021/04/18 02:40:19;;;;;;;8.25;4.95;;;4.90;99.90;;;;;;5154592;27;20095;-53
2021/04/18 02:42:45;;;;;;;6.55;4.30;;;4.80;99.90;;;;;;5154453;27;20042;-53
2021/04/18 02:45:12;;;;;;;6.68;4.57;;;4.90;99.90;;;;;;5154634;27;20377;-54
2021/04/18 02:47:38;;;;;;;12.43;4.47;;;4.90;99.90;;;;;;5154690;27;20095;-54
2021/04/18 02:50:06;;;;;;;5.35;4.28;;;4.90;99.90;;;;;;5154738;27;20404;-52
2021/04/18 02:52:31;;;;;;;5.57;4.68;;;4.90;99.90;;;;;;5154532;27;20502;-54
2021/04/18 02:54:57;;;;;;;6.45;3.70;;;4.90;99.90;;;;;;5154526;27;20153;-53
2021/04/18 02:57:23;;;;;;;5.00;3.90;;;4.90;99.90;;;;;;5154970;27;20417;-53
2021/04/18 02:59:49;;;;;;;4.85;3.60;;;5.00;99.90;;;;;;5154158;27;20049;-54
2021/04/18 03:02:14;;;;;;;4.53;3.92;;;5.10;99.90;;;;;;5154322;27;20046;-53
2021/04/18 03:04:40;;;;;;;4.68;4.05;;;5.20;99.90;;;;;;5154324;27;20484;-54
2021/04/18 03:07:06;;;;;;;4.68;3.63;;;5.00;99.90;;;;;;5154534;27;20035;-54
2021/04/18 03:09:31;;;;;;;5.97;4.05;;;4.90;99.90;;;;;;5154058;27;20086;-53
2021/04/18 03:11:57;;;;;;;5.85;4.00;;;4.90;99.90;;;;;;5153915;27;20039;-54
2021/04/18 03:14:23;;;;;;;5.65;3.78;;;4.80;99.90;;;;;;5154247;27;20049;-53
2021/04/18 03:16:49;;;;;;;5.63;4.07;;;4.80;99.90;;;;;;5153832;27;20396;-53
2021/04/18 03:19:14;;;;;;;5.25;3.35;;;4.70;99.90;;;;;;5153934;27;20047;-52
2021/04/18 03:21:40;;;;;;;6.05;3.88;;;4.60;99.90;;;;;;5153798;27;20490;-53
2021/04/18 03:24:06;;;;;;;4.38;3.42;;;4.60;99.90;;;;;;5135584;27;20050;-53
2021/04/18 03:26:32;;;;;;;5.50;3.47;;;4.50;99.90;;;;;;5154070;27;20043;-52
2021/04/18 03:28:58;;;;;;;6.38;3.97;;;4.50;99.90;;;;;;5153969;27;20035;-54
2021/04/18 03:31:24;;;;;;;6.70;4.05;;;4.50;99.90;;;;;;5153876;27;20492;-53
2021/04/18 03:33:49;;;;;;;6.63;3.53;;;4.40;99.90;;;;;;5153865;27;20039;-53
2021/04/18 03:36:15;;;;;;;5.45;3.65;;;4.50;99.90;;;;;;5153132;27;20051;-53
2021/04/18 03:38:41;;;;;;;4.18;3.58;;;4.40;99.90;;;;;;5154270;27;20464;-53
2021/04/18 03:41:07;;;;;;;6.07;4.07;;;4.40;99.90;;;;;;5153540;27;20058;-53
2021/04/18 03:43:33;;;;;;;4.65;3.47;;;4.40;99.90;;;;;;5153807;27;20038;-54
2021/04/18 03:45:59;;;;;;;5.32;3.45;;;4.30;99.90;;;;;;5153657;27;20476;-52
2021/04/18 03:48:24;;;;;;;4.57;4.05;;;4.40;99.90;;;;;;5153617;27;20483;-54
2021/04/18 03:50:50;;;;;;;5.70;3.53;;;4.40;99.90;;;;;;5153841;27;20042;-53
2021/04/18 03:53:16;;;;;;;7.45;4.32;;;4.60;99.90;;;;;;5153398;27;20046;-54
2021/04/18 03:55:41;;;;;;;8.35;4.53;;;4.60;99.90;;;;;;5153472;27;20045;-53
2021/04/18 03:58:07;;;;;;;7.78;5.05;;;4.70;99.90;;;;;;5153486;27;20046;-54
2021/04/18 04:00:33;;;;;;;11.35;5.03;;;4.70;99.90;;;;;;5153705;27;20034;-54
2021/04/18 04:02:59;;;;;;;8.43;4.57;;;4.80;99.90;;;;;;5153439;27;20047;-53
2021/04/18 04:05:25;;;;;;;8.90;4.45;;;4.70;99.90;;;;;;5153313;27;20486;-54
2021/04/18 04:07:50;;;;;;;7.85;4.40;;;4.60;99.90;;;;;;5153571;27;20096;-53
2021/04/18 04:10:16;;;;;;;9.40;4.35;;;4.60;99.90;;;;;;5153289;27;20134;-50
2021/04/18 04:12:42;;;;;;;7.28;3.88;;;4.60;99.90;;;;;;5153561;27;20066;-53
2021/04/18 04:15:09;;;;;;;7.47;4.22;;;4.70;99.90;;;;;;5153221;27;20062;-54
2021/04/18 04:17:34;;;;;;;6.60;3.90;;;4.60;99.90;;;;;;5153358;27;20053;-51
2021/04/18 04:20:00;;;;;;;5.45;3.88;;;4.60;99.90;;;;;;5153432;27;20047;-53
2021/04/18 04:22:26;;;;;;;7.95;4.05;;;4.60;99.90;;;;;;5153417;27;20039;-53
2021/04/18 04:24:53;;;;;;;10.52;5.35;;;4.50;99.90;;;;;;5153688;27;20476;-53
2021/04/18 04:27:19;;;;;;;11.23;4.57;;;4.60;99.90;;;;;;5153320;27;20042;-53
2021/04/18 04:29:49;;;;;;;15.75;5.22;;;4.60;99.90;;;;;;5153156;27;20083;-54
2021/04/18 04:32:15;;;;;;;9.32;5.10;;;4.70;99.90;;;;;;5153258;27;20161;-53
2021/04/18 04:34:41;;;;;;;11.30;5.00;;;4.70;99.90;;;;;;5153448;27;20042;-53
2021/04/18 04:37:07;;;;;;;8.50;4.93;;;4.80;99.90;;;;;;5153040;27;20076;-54
2021/04/18 04:39:33;;;;;;;10.40;5.68;;;4.70;99.90;;;;;;5153076;27;20039;-54
2021/04/18 04:42:00;;;;;;;6.50;5.10;;;4.60;99.90;;;;;;5153030;27;20095;-53
2021/04/18 04:44:28;;;;;;;9.50;4.65;;;4.70;99.90;;;;;;5153022;27;20122;-53
2021/04/18 04:46:54;;;;;;;8.13;5.18;;;4.80;99.90;;;;;;5153445;27;20049;-53
2021/04/18 04:49:21;;;;;;;9.13;5.10;;;4.80;99.90;;;;;;5156843;27;20034;-53
2021/04/18 04:51:47;;;;;;;10.23;5.40;;;4.80;99.90;;;;;;5156806;27;20043;-53
2021/04/18 04:54:12;;;;;;;11.90;5.07;;;4.80;99.90;;;;;;5156982;27;20096;-54
2021/04/18 04:56:38;;;;;;;9.77;5.60;;;4.80;99.90;;;;;;5156842;27;20130;-54
2021/04/18 04:59:04;;;;;;;10.68;5.78;;;4.90;99.90;;;;;;5164946;27;20050;-53
2021/04/18 05:01:29;;;;;;;11.95;5.95;;;4.90;99.90;;;;;;5138155;27;20545;-53
2021/04/18 05:03:55;;;;;;;9.45;5.72;;;4.90;99.90;;;;;;5138069;27;20064;-54
2021/04/18 05:06:21;;;;;;;9.13;5.57;;;4.90;99.90;;;;;;5156514;27;20089;-51
2021/04/18 05:08:47;;;;;;;12.10;6.28;;;4.80;99.90;;;;;;5156366;27;20046;-53
2021/04/18 05:11:13;;;;;;;10.77;6.03;;;4.80;99.90;;;;;;5156649;27;20062;-52
2021/04/18 05:13:39;;;;;;;9.90;5.50;;;4.90;99.90;;;;;;5156521;27;20075;-54
2021/04/18 05:16:05;;;;;;;10.25;5.47;;;4.90;99.90;;;;;;5156166;27;20057;-53
2021/04/18 05:18:31;;;;;;;10.20;6.03;;;4.90;99.90;;;;;;5156413;27;20034;-54
2021/04/18 05:20:56;;;;;;;12.25;7.50;;;5.00;99.90;;;;;;5156092;27;20030;-53
2021/04/18 05:23:22;;;;;;;14.00;8.60;;;5.10;99.90;;;;;;5156312;27;20039;-53
2021/04/18 05:25:48;;;;;;;16.23;9.07;;;5.10;99.90;;;;;;5156584;27;20046;-52
2021/04/18 05:28:13;;;;;;;13.00;7.57;;;5.10;99.90;;;;;;5156061;27;20043;-53
2021/04/18 05:30:39;;;;;;;17.58;8.02;;;5.20;99.90;;;;;;5156276;27;20129;-54
2021/04/18 05:33:05;;;;;;;11.65;7.72;;;5.20;99.90;;;;;;5155988;27;20038;-54
2021/04/18 05:35:31;;;;;;;12.27;7.10;;;5.30;99.90;;;;;;5155907;27;20043;-52
2021/04/18 05:37:57;;;;;;;11.13;7.00;;;5.30;99.90;;;;;;5155958;27;20035;-53
2021/04/18 05:40:22;;;;;;;9.13;6.93;;;5.40;99.90;;;;;;5155800;27;20062;-52
2021/04/18 05:42:49;;;;;;;10.60;6.95;;;5.30;99.90;;;;;;5155733;27;20047;-54
2021/04/18 05:45:14;;;;;;;10.77;7.13;;;5.40;99.90;;;;;;5155901;27;20057;-54
2021/04/18 05:47:40;;;;;;;10.30;6.78;;;5.50;99.90;;;;;;5155835;27;20066;-53
2021/04/18 05:50:06;;;;;;;8.40;6.40;;;5.50;99.90;;;;;;5155629;27;20126;-54
2021/04/18 05:52:33;;;;;;;8.93;6.70;;;5.60;99.90;;;;;;5137094;27;20047;-52
2021/04/18 05:54:59;;;;;;;10.60;6.75;;;5.60;99.90;;;;;;5155745;27;20047;-52
2021/04/18 05:57:26;;;;;;;8.73;6.15;;;5.80;99.90;;;;;;5155726;27;20047;-53
2021/04/18 05:59:53;;;;;;;10.32;7.38;;;5.90;99.90;;;;;;5154458;27;20508;-54
2021/04/18 06:02:19;;;;;;;10.35;7.93;;;6.10;99.90;;;;;;5155360;27;20125;-53
2021/04/18 06:04:45;;;;;;;11.15;7.38;;;6.20;99.90;;;;;;5155642;27;20122;-54
2021/04/18 06:07:11;;;;;;;11.45;8.30;;;6.50;99.90;;;;;;5155712;27;20357;-54
2021/04/18 06:09:36;;;;;;;11.63;8.55;;;6.70;99.90;;;;;;5136772;27;20049;-52
2021/04/18 06:12:02;;;;;;;13.50;9.40;;;7.00;99.90;;;;;;5155432;27;20046;-54
2021/04/18 06:14:28;;;;;;;16.02;10.15;;;7.20;99.90;;;;;;5155584;27;20050;-54
2021/04/18 06:16:54;;;;;;;14.02;10.23;;;7.40;99.90;;;;;;5155376;27;20046;-54
2021/04/18 06:19:19;;;;;;;15.40;10.68;;;7.50;99.90;;;;;;5155148;27;20452;-54
2021/04/18 06:21:45;;;;;;;17.40;10.00;;;7.80;99.90;;;;;;5155008;27;20043;-52
2021/04/18 06:24:11;;;;;;;18.77;10.93;;;8.20;99.90;;;;;;5155053;27;20042;-54
2021/04/18 06:26:37;;;;;;;16.67;10.50;;;8.50;99.90;;;;;;5155128;27;20038;-53
2021/04/18 06:29:03;;;;;;;16.08;10.43;;;8.80;99.90;;;;;;5154967;27;20194;-54
2021/04/18 06:31:28;;;;;;;15.77;11.27;;;8.70;99.90;;;;;;5154755;27;20038;-54
2021/04/18 06:33:54;;;;;;;19.77;11.75;;;8.60;99.90;;;;;;5154759;27;20169;-55
2021/04/18 06:36:20;;;;;;;16.10;10.38;;;8.70;99.90;;;;;;5154633;27;20472;-54
2021/04/18 06:38:46;;;;;;;16.58;10.40;;;8.60;99.90;;;;;;5154711;27;20042;-55
2021/04/18 06:41:21;;;;;;;17.92;10.75;;;8.80;99.90;;;;;;5154526;27;20552;-53
2021/04/18 06:43:49;;;;;;;14.23;10.00;;;9.10;99.90;;;;;;5154702;27;20054;-54
2021/04/18 06:46:16;;;;;;;14.50;10.93;;;9.50;99.90;;;;;;5155111;27;20094;-54
2021/04/18 06:48:44;;;;;;;18.08;10.95;;;9.90;99.90;;;;;;5154480;27;20158;-54
2021/04/18 06:51:10;;;;;;;17.27;10.90;;;9.90;99.90;;;;;;5154472;27;20043;-54
2021/04/18 06:53:36;;;;;;;18.35;11.90;;;9.80;99.90;;;;;;5154666;27;20047;-54
2021/04/18 06:56:05;;;;;;;22.40;12.32;;;9.60;99.90;;;;;;5154342;27;20054;-53
2021/04/18 06:58:32;;;;;;;20.85;11.30;;;9.50;99.90;;;;;;5154298;27;20042;-54
2021/04/18 07:00:58;;;;;;;16.90;11.40;;;9.50;99.90;;;;;;5135319;27;20115;-54
2021/04/18 07:03:24;;;;;;;19.60;11.70;;;9.30;99.90;;;;;;5154411;27;20444;-52
2021/04/18 07:05:53;;;;;;;19.05;11.00;;;9.30;99.90;;;;;;5154213;27;20122;-54
2021/04/18 07:08:28;;;;;;;23.88;11.82;;;9.20;99.90;;;;;;5154316;27;20039;-54
2021/04/18 07:11:18;;;;;;;27.17;12.10;;;9.40;99.90;;;;;;5153798;27;20038;-53
2021/04/18 07:13:45;;;;;;;;;;;9.80;99.90;;;;;;5154859;27;20047;-54
2021/04/18 07:16:23;;;;;;;19.10;12.60;;;10.20;99.90;;;;;;5154150;27;20296;-54
2021/04/18 07:18:49;;;;;;;15.75;10.18;;;10.70;99.90;;;;;;5153917;27;20484;-55
2021/04/18 07:21:15;;;;;;;15.13;10.10;;;11.30;99.90;;;;;;5153799;27;20125;-54
2021/04/18 07:23:41;;;;;;;20.80;9.82;;;11.90;99.90;;;;;;5154383;27;20504;-55
2021/04/18 07:26:36;;;;;;;15.07;10.57;;;12.30;99.90;;;;;;5153856;27;20045;-54
2021/04/18 07:29:12;;;;;;;18.55;10.32;;;12.70;99.90;;;;;;5049864;28;20055;-55
2021/04/18 07:31:38;;;;;;;20.90;9.85;;;13.00;99.90;;;;;;5049705;28;20095;-55
2021/04/18 07:34:08;;;;;;;11.90;8.05;;;13.20;99.90;;;;;;5049715;28;20047;-55
2021/04/18 07:36:36;;;;;;;16.02;7.90;;;13.50;99.90;;;;;;5049803;28;20041;-55
2021/04/18 07:39:06;;;;;;;13.55;8.15;;;13.80;99.90;;;;;;5049609;28;20478;-55
2021/04/18 07:41:31;;;;;;;13.18;8.07;;;13.70;98.70;;;;;;5049549;28;20099;-55
2021/04/18 07:43:58;;;;;;;12.65;7.45;;;13.50;99.10;;;;;;5049554;28;20041;-54
2021/04/18 07:46:24;;;;;;;13.48;7.13;;;13.60;99.20;;;;;;5049537;28;20048;-55
2021/04/18 07:48:50;;;;;;;10.32;7.05;;;13.80;98.20;;;;;;5049446;28;20438;-55
2021/04/18 07:51:17;;;;;;;11.57;7.00;;;14.00;96.80;;;;;;5049569;28;20052;-55
2021/04/18 07:53:45;;;;;;;13.10;7.22;;;13.80;97.30;;;;;;5049518;28;20041;-55
2021/04/18 07:56:12;;;;;;;12.20;6.93;;;13.60;96.60;;;;;;5049421;28;20075;-54
2021/04/18 07:58:42;;;;;;;13.90;7.50;;;13.70;97.60;;;;;;5049970;28;20526;-54
2021/04/18 08:01:08;;;;;;;13.48;6.97;;;13.80;97.20;;;;;;5069263;28;20056;-54
2021/04/18 08:03:36;;;;;;;13.45;7.72;;;13.50;97.50;;;;;;5069342;28;20056;-54
2021/04/18 08:06:04;;;;;;;12.82;8.25;;;13.50;97.60;;;;;;5133139;27;20095;-54
2021/04/18 08:09:14;;;;;;;13.13;7.72;;;13.20;98.20;;;;;;5153517;27;20058;-54
2021/04/18 08:11:40;;;;;;;11.82;7.50;;;13.20;98.60;;;;;;5089352;28;20044;-54
2021/04/18 08:14:16;;;;;;;9.55;7.18;;;13.40;98.70;;;;;;5089510;28;20055;-55
2021/04/18 08:16:42;;;;;;;15.60;7.43;;;13.70;97.40;;;;;;5089345;28;20044;-55
2021/04/18 08:19:10;;;;;;;14.70;6.97;;;14.10;97.00;;;;;;5089377;28;20040;-55
2021/04/18 08:21:39;;;;;;;8.45;5.95;;;14.70;96.20;;;;;;5089507;28;20089;-55
2021/04/18 08:24:25;;;;;;;12.43;6.38;;;14.70;94.00;;;;;;5093445;28;20048;-54
2021/04/18 08:27:13;;;;;;;13.77;6.95;;;15.40;95.10;;;;;;5092882;28;20123;-55
2021/04/18 08:30:05;;;;;;;13.00;7.30;;;15.70;93.80;;;;;;5093257;28;20123;-55
2021/04/18 08:32:43;;;;;;;8.32;6.53;;;16.00;93.30;;;;;;5093250;28;20044;-55
2021/04/18 08:35:17;;;;;;;11.00;6.18;;;16.40;93.70;;;;;;5093566;28;20048;-55
2021/04/18 08:37:43;;;;;;;10.52;5.90;;;16.60;92.20;;;;;;5093142;28;20051;-55
2021/04/18 08:40:09;;;;;;;9.27;5.20;;;16.80;92.00;;;;;;5092970;28;20047;-55
2021/04/18 08:42:36;;;;;;;11.60;5.38;;;16.70;88.40;;;;;;5092795;28;20101;-55
2021/04/18 08:45:05;;;;;;;10.13;6.15;;;17.20;89.70;;;;;;5093140;28;20048;-55
2021/04/18 08:47:32;;;;;;;8.67;5.87;;;17.00;88.20;;;;;;5137308;27;20107;-55
2021/04/18 08:50:07;;;;;;;11.30;5.90;;;17.10;89.20;;;;;;5156844;27;20042;-55
2021/04/18 08:52:36;;;;;;;11.00;6.88;;;17.00;89.00;;;;;;5156729;27;20458;-55
2021/04/18 08:55:06;;;;;;;9.65;5.80;;;17.10;90.20;;;;;;5156652;27;20039;-55
2021/04/18 08:57:32;;;;;;;8.68;5.28;;;17.00;87.80;;;;;;5156687;27;20450;-55
2021/04/18 09:00:18;;;;;;;8.68;5.85;;;17.10;88.20;;;;;;5156429;27;20441;-55
2021/04/18 09:02:54;;;;;;;9.52;5.80;;;16.80;87.00;;;;;;5156156;27;20134;-55
2021/04/18 09:05:21;;;;;;;7.63;5.45;;;17.00;87.40;;;;;;5156358;27;20513;-55
2021/04/18 09:07:47;;;;;;;6.93;4.90;;;17.40;89.00;;;;;;5156611;27;20045;-55
2021/04/18 09:10:13;;;;;;;9.38;5.28;;;17.60;88.20;;;;;;5156848;27;20039;-55
2021/04/18 09:12:40;;;;;;;6.95;4.40;;;17.80;85.70;;;;;;5156601;27;20046;-55
2021/04/18 09:15:07;;;;;;;11.70;4.40;;;18.00;82.90;;;;;;5156331;27;20072;-55
2021/04/18 09:17:34;;;;;;;8.75;4.93;;;18.30;82.50;;;;;;5156425;27;20070;-55
2021/04/18 09:20:03;;;;;;;6.90;4.20;;;18.70;80.90;;;;;;5156239;27;20396;-55
2021/04/18 09:22:33;;;;;;;;;;;18.70;78.00;;;;;;5156500;27;20571;-55
2021/04/18 09:25:09;;;;;;;7.22;4.18;;;18.80;76.40;;;;;;5156143;27;19966;-55
2021/04/18 09:27:49;;;;;;;7.57;4.82;;;18.60;78.70;;;;;;5156200;27;20066;-55
2021/04/18 09:30:23;;;;;;;7.22;4.40;;;18.70;75.90;;;;;;5156148;27;20042;-55
2021/04/18 09:32:52;;;;;;;9.35;4.50;;;18.80;75.70;;;;;;5156038;27;20042;-55
2021/04/18 09:35:23;;;;;;;7.95;4.40;;;18.70;76.90;;;;;;5156063;27;20110;-55
2021/04/18 09:37:54;;;;;;;6.78;4.57;;;19.00;74.80;;;;;;5155989;27;20581;-55
2021/04/18 09:40:23;;;;;;;10.07;4.07;;;19.10;76.80;;;;;;5155912;27;20049;-55
2021/04/18 09:42:51;;;;;;;5.78;4.03;;;19.10;72.70;;;;;;5155908;27;20038;-55
2021/04/18 09:45:23;;;;;;;7.70;4.70;;;18.90;73.90;;;;;;5155689;27;20039;-55
2021/04/18 09:47:52;;;;;;;9.95;5.03;;;18.80;73.00;;;;;;5155743;27;20037;-55
2021/04/18 09:50:20;;;;;;;6.82;3.78;;;18.70;74.60;;;;;;5155708;27;20079;-55
2021/04/18 09:52:46;;;;;;;7.60;3.88;;;18.50;75.70;;;;;;5155576;27;20426;-55
2021/04/18 09:55:25;;;;;;;9.00;4.20;;;18.50;76.90;;;;;;5155513;27;20046;-55
2021/04/18 09:57:58;;;;;;;7.82;4.47;;;18.70;78.60;;;;;;5155481;27;20045;-56
2021/04/18 10:00:29;;;;;;;11.70;4.25;;;18.60;78.80;;;;;;5155233;27;20053;-56
2021/04/18 10:03:15;;;;;;;7.63;3.92;;;18.90;75.40;;;;;;5155528;27;20446;-55
2021/04/18 10:05:47;;;;;;;8.15;3.67;;;18.50;73.80;;;;;;5155284;27;20476;-55
2021/04/18 10:08:19;;;;;;;10.98;4.65;;;18.60;75.30;;;;;;5155301;27;20043;-55
2021/04/18 10:10:49;;;;;;;8.07;4.72;;;18.30;76.60;;;;;;5155262;27;20042;-55
2021/04/18 10:13:15;;;;;;;7.93;4.90;;;18.40;78.60;;;;;;5155524;27;20117;-55
2021/04/18 10:15:51;;;;;;;8.50;4.88;;;18.40;82.30;;;;;;5155275;27;20183;-55
2021/04/18 10:18:19;;;;;;;11.40;4.55;;;18.30;82.60;;;;;;5155092;27;20382;-55
2021/04/18 10:20:44;;;;;;;9.35;4.95;;;18.20;81.10;;;;;;5155387;27;20493;-55
2021/04/18 10:23:10;;;;;;;6.78;4.38;;;18.30;80.00;;;;;;5154719;27;20043;-55
2021/04/18 10:25:38;;;;;;;5.00;3.58;;;18.40;79.70;;;;;;5154957;27;20117;-55
2021/04/18 10:28:05;;;;;;;8.03;3.67;;;18.50;73.90;;;;;;5155092;27;20043;-55
2021/04/18 10:30:31;;;;;;;8.48;3.90;;;18.70;75.60;;;;;;5154969;27;20288;-55
2021/04/18 10:32:57;;;;;;;7.63;4.00;;;19.00;71.90;;;;;;5154755;27;20039;-55
2021/04/18 10:35:24;;;;;;;6.03;4.05;;;19.50;75.10;;;;;;5154739;27;20039;-55
2021/04/18 10:37:50;;;;;;;6.43;4.30;;;19.40;74.30;;;;;;5154765;27;20118;-55
2021/04/18 10:40:17;;;;;;;13.23;4.57;;;19.40;75.30;;;;;;5154857;27;20122;-55
2021/04/18 10:42:43;;;;;;;6.78;4.22;;;19.90;75.30;;;;;;5154475;27;20039;-55
2021/04/18 10:45:11;;;;;;;7.75;4.45;;;20.10;75.90;;;;;;5154134;27;20118;-55
2021/04/18 10:47:37;;;;;;;9.35;3.97;;;20.30;76.10;;;;;;5154572;27;20054;-55
2021/04/18 10:50:04;;;;;;;8.57;4.57;;;20.30;73.90;;;;;;5154442;27;20038;-55
2021/04/18 10:52:32;;;;;;;6.25;3.80;;;19.90;70.30;;;;;;5154685;27;20046;-55
2021/04/18 10:54:57;;;;;;;6.00;3.92;;;20.00;69.50;;;;;;5154271;27;20069;-56
2021/04/18 10:57:23;;;;;;;6.00;3.45;;;19.50;67.80;;;;;;5154486;27;20480;-55
2021/04/18 10:59:50;;;;;;;7.72;4.35;;;19.50;68.10;;;;;;5154306;27;20062;-55
2021/04/18 11:02:16;;;;;;;7.22;4.30;;;19.40;70.30;;;;;;5154121;27;20046;-55
2021/04/18 11:04:42;;;;;;;6.25;3.75;;;19.80;70.60;;;;;;5154167;27;20035;-55
2021/04/18 11:07:08;;;;;;;9.30;4.20;;;19.80;71.70;;;;;;5154402;27;20034;-55
2021/04/18 11:09:38;;;;;;;6.95;3.95;;;20.00;69.90;;;;;;5154114;27;20043;-55
2021/04/18 11:12:17;;;;;;;8.45;4.80;;;20.00;67.60;;;;;;5154090;27;20487;-55
2021/04/18 11:14:43;;;;;;;;;;;20.30;70.00;;;;;;5136143;27;20039;-55
2021/04/18 11:17:09;;;;;;;5.60;3.33;;;20.60;66.80;;;;;;5153910;27;19915;-56
2021/04/18 11:19:34;;;;;;;5.63;3.83;;;20.60;67.40;;;;;;5154086;27;20456;-55
2021/04/18 11:22:00;;;;;;;10.13;3.92;;;20.60;69.60;;;;;;5154081;27;20047;-55
2021/04/18 11:24:26;;;;;;;8.75;4.50;;;20.40;70.30;;;;;;5153999;27;20046;-55
2021/04/18 11:26:52;;;;;;;9.77;4.70;;;20.60;72.30;;;;;;5153956;27;20087;-56
2021/04/18 11:29:17;;;;;;;5.85;4.03;;;21.00;68.70;;;;;;5153887;27;20443;-56
2021/04/18 11:31:44;;;;;;;6.38;3.83;;;20.70;65.10;;;;;;5153784;27;20034;-55
2021/04/18 11:34:10;;;;;;;9.07;5.00;;;20.90;68.80;;;;;;5153864;27;20094;-55
2021/04/18 11:36:36;;;;;;;8.55;4.50;;;20.40;69.90;;;;;;5153761;27;20476;-55
2021/04/18 11:39:03;;;;;;;8.15;4.18;;;20.70;70.70;;;;;;5153657;27;20492;-55
2021/04/18 11:41:29;;;;;;;5.93;4.55;;;20.60;68.00;;;;;;5153617;27;20050;-55
2021/04/18 11:43:55;;;;;;;7.38;4.80;;;20.30;70.50;;;;;;5153666;27;20043;-56
2021/04/18 11:46:21;;;;;;;9.48;4.43;;;20.40;73.10;;;;;;5153511;27;20127;-56
2021/04/18 11:48:47;;;;;;;6.25;4.15;;;20.60;72.50;;;;;;5153770;27;20104;-55
2021/04/18 11:51:13;;;;;;;7.20;4.40;;;20.50;71.70;;;;;;5153495;27;20039;-55
2021/04/18 11:53:38;;;;;;;9.73;4.75;;;20.50;71.00;;;;;;5153817;27;20035;-55
2021/04/18 11:56:05;;;;;;;11.63;5.07;;;20.40;71.50;;;;;;5153117;27;20043;-55
2021/04/18 11:58:30;;;;;;;8.20;4.13;;;20.30;71.70;;;;;;5153248;27;20481;-55
2021/04/18 12:00:56;;;;;;;6.82;4.32;;;20.50;72.60;;;;;;5153163;27;20050;-55
2021/04/18 12:03:22;;;;;;;7.47;4.10;;;20.50;70.50;;;;;;5153518;27;20058;-55
2021/04/18 12:05:47;;;;;;;7.75;4.38;;;20.60;71.00;;;;;;5153504;27;20074;-56
2021/04/18 12:08:16;;;;;;;9.60;3.63;;;20.30;70.30;;;;;;5153362;27;20083;-56
2021/04/18 12:10:42;;;;;;;7.78;4.18;;;20.40;68.90;;;;;;5153294;27;20109;-55
2021/04/18 12:13:08;;;;;;;6.90;3.85;;;20.20;68.60;;;;;;5134874;27;20091;-55
2021/04/18 12:15:34;;;;;;;6.53;3.67;;;20.40;68.60;;;;;;5153241;27;20373;-55
2021/04/18 12:17:59;;;;;;;7.88;3.80;;;20.40;68.60;;;;;;5134794;27;20543;-55
2021/04/18 12:20:25;;;;;;;7.53;3.40;;;20.50;68.10;;;;;;5153288;27;20043;-55
2021/04/18 12:22:51;;;;;;;6.93;3.28;;;19.80;66.60;;;;;;5153290;27;20053;-55
2021/04/18 12:25:17;;;;;;;5.95;3.30;;;19.30;65.40;;;;;;5153427;27;20122;-57
2021/04/18 12:27:42;;;;;;;6.55;3.10;;;19.60;65.30;;;;;;5153044;27;20035;-55
2021/04/18 12:30:10;;;;;;;6.78;3.47;;;19.60;65.40;;;;;;5153097;27;20046;-55
2021/04/18 12:32:36;;;;;;;8.37;2.97;;;19.50;65.80;;;;;;5152996;27;20047;-55
2021/04/18 12:35:04;;;;;;;5.78;2.88;;;19.40;64.60;;;;;;5153310;27;20050;-55
2021/04/18 12:37:30;;;;;;;5.22;2.50;;;19.20;63.40;;;;;;5153148;27;20047;-56
2021/04/18 12:39:56;;;;;;;6.68;3.25;;;19.70;65.70;;;;;;5153096;27;20039;-55
2021/04/18 12:42:23;;;;;;;7.00;3.13;;;19.50;64.90;;;;;;5152990;27;20057;-55
2021/04/18 12:44:50;;;;;;;5.22;3.22;;;19.30;65.70;;;;;;5152991;27;20153;-54
2021/04/18 12:47:17;;;;;;;22.67;4.90;;;19.50;65.50;;;;;;5152979;27;20039;-55
2021/04/18 12:49:44;;;;;;;4.18;2.85;;;19.70;68.10;;;;;;5152974;27;20039;-55